createdAt,value
2023-03-03T00:03:06.120Z,6.97
2023-03-03T00:13:24.321Z,7.03
2023-03-03T00:18:34.901Z,6.13
2023-03-03T00:23:38.759Z,6.30
2023-03-03T00:28:47.285Z,7.45
2023-03-03T00:33:54.960Z,6.18
2023-03-03T00:39:11.420Z,4.90
2023-03-03T00:44:45.417Z,5.47
2023-03-03T00:49:47.047Z,4.50
2023-03-03T00:54:48.863Z,4.70
2023-03-03T00:59:50.705Z,5.28
2023-03-03T01:04:56.442Z,4.15
2023-03-03T01:09:59.247Z,3.72
2023-03-03T01:15:02.246Z,3.50
2023-03-03T01:20:04.616Z,3.58
2023-03-03T01:25:06.839Z,3.33
2023-03-03T01:30:09.431Z,2.80
2023-03-03T01:35:11.760Z,3.72
2023-03-03T01:40:19.467Z,3.28
2023-03-03T01:45:28.099Z,2.90
2023-03-03T01:50:45.365Z,2.65
2023-03-03T01:55:50.278Z,2.88
2023-03-03T02:00:57.810Z,2.30
2023-03-03T02:06:06.324Z,1.58
2023-03-03T02:11:09.023Z,2.10
2023-03-03T02:16:10.672Z,2.00
2023-03-03T02:21:18.035Z,1.60
2023-03-03T02:26:41.400Z,1.58
2023-03-03T02:31:45.093Z,1.20
2023-03-03T02:36:46.983Z,1.55
2023-03-03T02:42:21.752Z,1.00
2023-03-03T02:47:29.536Z,1.33
2023-03-03T02:52:31.311Z,1.30
2023-03-03T02:57:32.917Z,1.00
2023-03-03T03:02:34.741Z,1.17
2023-03-03T03:07:37.746Z,1.23
2023-03-03T03:12:40.265Z,1.50
2023-03-03T03:17:44.195Z,1.42
2023-03-03T03:22:47.078Z,1.58
2023-03-03T03:27:48.881Z,1.25
2023-03-03T03:32:50.776Z,1.25
2023-03-03T03:37:52.731Z,1.38
2023-03-03T03:42:55.112Z,1.10
2023-03-03T03:47:58.032Z,1.60
2023-03-03T03:52:59.709Z,1.48
2023-03-03T03:58:02.287Z,1.33
2023-03-03T04:03:04.170Z,0.95
2023-03-03T04:08:06.444Z,1.17
2023-03-03T04:13:08.765Z,1.10
2023-03-03T04:18:11.212Z,1.13
2023-03-03T04:23:14.858Z,0.80
2023-03-03T04:28:17.659Z,0.95
2023-03-03T04:33:19.957Z,1.00
2023-03-03T04:38:22.016Z,1.10
2023-03-03T04:43:24.900Z,1.13
2023-03-03T04:48:27.279Z,1.33
2023-03-03T04:53:29.473Z,1.65
2023-03-03T04:58:31.357Z,2.05
2023-03-03T05:03:33.257Z,1.50
2023-03-03T05:08:35.292Z,1.73
2023-03-03T05:13:36.855Z,1.40
2023-03-03T05:18:38.611Z,1.70
2023-03-03T05:23:40.654Z,1.20
2023-03-03T05:28:42.255Z,2.38
2023-03-03T05:33:43.951Z,1.60
2023-03-03T05:38:45.554Z,1.48
2023-03-03T05:43:47.297Z,2.00
2023-03-03T05:48:48.932Z,1.60
2023-03-03T05:53:50.575Z,2.10
2023-03-03T05:58:52.280Z,1.50
2023-03-03T06:03:53.926Z,1.65
2023-03-03T06:08:57.273Z,2.22
2023-03-03T06:13:59.133Z,2.05
2023-03-03T06:19:01.404Z,2.05
2023-03-03T06:24:03.112Z,1.80
2023-03-03T06:29:04.766Z,2.03
2023-03-03T06:34:06.381Z,2.28
2023-03-03T06:39:08.054Z,2.13
2023-03-03T06:44:11.909Z,2.30
2023-03-03T06:49:13.530Z,2.65
2023-03-03T06:54:16.649Z,2.10
2023-03-03T06:59:20.813Z,3.30
2023-03-03T07:04:31.065Z,2.63
2023-03-03T07:09:32.769Z,1.83
2023-03-03T07:14:39.558Z,2.03
2023-03-03T07:19:42.430Z,2.72
2023-03-03T07:24:52.832Z,9.10
2023-03-03T07:30:16.348Z,4.68
2023-03-03T07:35:40.276Z,4.13
2023-03-03T07:40:49.568Z,2.80
2023-03-03T07:45:51.649Z,2.30
2023-03-03T07:50:53.351Z,2.25
2023-03-03T07:55:55.204Z,2.38
2023-03-03T08:01:18.550Z,2.42
2023-03-03T08:06:44.493Z,2.40
2023-03-03T08:11:57.790Z,2.28
2023-03-03T08:17:01.665Z,2.22
2023-03-03T08:22:16.509Z,1.65
2023-03-03T08:27:18.084Z,2.33
2023-03-03T08:32:19.855Z,1.63
2023-03-03T08:37:21.529Z,1.00
2023-03-03T08:42:23.096Z,1.40
2023-03-03T08:47:26.000Z,1.60
2023-03-03T08:52:48.244Z,1.95
2023-03-03T08:57:50.022Z,1.20
2023-03-03T09:02:51.761Z,1.50
2023-03-03T09:07:54.461Z,1.30
2023-03-03T09:12:58.989Z,1.63
2023-03-03T09:18:14.051Z,2.97
2023-03-03T09:23:38.180Z,1.05
2023-03-03T09:28:39.858Z,0.93
2023-03-03T09:33:45.026Z,0.93
2023-03-03T09:38:47.864Z,1.08
2023-03-03T09:44:08.238Z,1.10
2023-03-03T09:49:27.783Z,0.70
2023-03-03T09:54:54.154Z,1.47
2023-03-03T10:00:10.871Z,2.40
2023-03-03T10:05:25.362Z,1.73
2023-03-03T10:10:51.387Z,0.75
2023-03-03T10:15:59.172Z,1.00
2023-03-03T10:21:41.070Z,1.17
2023-03-03T10:27:12.072Z,0.90
2023-03-03T10:32:45.931Z,1.10
2023-03-03T10:38:25.127Z,1.33
2023-03-03T10:44:00.950Z,0.93
2023-03-03T10:49:27.545Z,1.38
2023-03-03T10:54:57.591Z,1.20
2023-03-03T11:00:15.847Z,1.07
2023-03-03T11:05:43.695Z,1.30
2023-03-03T11:10:50.047Z,0.70
2023-03-03T11:16:23.033Z,0.95
2023-03-03T11:21:37.715Z,0.70
2023-03-03T11:26:48.072Z,0.98
2023-03-03T11:31:57.569Z,1.10
2023-03-03T11:37:08.559Z,1.20
2023-03-03T11:42:32.293Z,0.85
2023-03-03T11:47:42.571Z,1.50
2023-03-03T11:52:53.307Z,1.80
2023-03-03T11:58:13.343Z,1.13
2023-03-03T12:03:30.350Z,1.20
2023-03-03T12:08:42.766Z,1.00
2023-03-03T12:14:22.378Z,1.20
2023-03-03T12:19:54.408Z,1.42
2023-03-03T12:24:55.989Z,2.05
2023-03-03T12:30:07.303Z,1.27
2023-03-03T12:35:27.626Z,1.05
2023-03-03T12:45:49.537Z,1.35
2023-03-03T12:51:16.434Z,0.82
2023-03-03T12:56:33.457Z,1.15
2023-03-03T13:01:52.589Z,1.30
2023-03-03T13:07:10.182Z,1.33
2023-03-03T13:12:51.731Z,0.90
2023-03-03T13:18:05.173Z,1.60
2023-03-03T13:23:38.397Z,1.20
2023-03-03T13:28:50.036Z,0.80
2023-03-03T13:33:56.661Z,1.73
2023-03-03T13:39:06.409Z,1.30
2023-03-03T13:44:25.804Z,1.48
2023-03-03T13:50:05.802Z,1.20
2023-03-03T13:55:21.684Z,0.60
2023-03-03T14:00:44.918Z,1.17
2023-03-03T14:05:49.859Z,1.00
2023-03-03T14:11:22.438Z,0.85
2023-03-03T14:16:45.844Z,1.08
2023-03-03T14:22:03.575Z,1.00
2023-03-03T14:27:23.355Z,0.70
2023-03-03T14:32:43.232Z,0.75
2023-03-03T14:37:47.482Z,1.15
2023-03-03T14:42:54.551Z,1.15
2023-03-03T14:47:56.264Z,1.10
2023-03-03T14:53:08.626Z,1.77
2023-03-03T14:58:29.292Z,1.20
2023-03-03T15:03:31.543Z,1.40
2023-03-03T15:08:36.479Z,1.13
2023-03-03T15:13:38.552Z,1.38
2023-03-03T15:19:04.166Z,2.78
2023-03-03T15:24:22.227Z,1.30
2023-03-03T15:29:36.156Z,1.65
2023-03-03T15:34:51.363Z,0.98
2023-03-03T15:40:05.233Z,1.92
2023-03-03T15:45:16.075Z,1.55
2023-03-03T15:50:40.494Z,1.52
2023-03-03T15:55:42.038Z,2.50
2023-03-03T16:01:16.269Z,1.52
2023-03-03T16:06:33.729Z,2.45
2023-03-03T16:12:20.321Z,2.22
2023-03-03T16:17:37.037Z,2.28
2023-03-03T16:23:22.370Z,2.42
2023-03-03T16:28:45.504Z,2.05
2023-03-03T16:34:05.404Z,2.53
2023-03-03T16:39:15.141Z,2.50
2023-03-03T16:44:47.864Z,2.95
2023-03-03T16:50:09.567Z,4.45
2023-03-03T16:55:42.640Z,2.42
2023-03-03T17:01:06.500Z,2.90
2023-03-03T17:06:35.966Z,2.92
2023-03-03T17:12:19.502Z,3.05
2023-03-03T17:17:59.784Z,3.05
2023-03-03T17:23:02.637Z,2.90
2023-03-03T17:28:38.663Z,3.20
2023-03-03T17:33:49.903Z,2.58
2023-03-03T17:39:19.372Z,2.40
2023-03-03T17:44:28.731Z,2.50
2023-03-03T17:49:56.500Z,3.47
2023-03-03T17:55:20.057Z,3.28
2023-03-03T18:00:43.879Z,2.72
2023-03-03T18:06:06.460Z,2.72
2023-03-03T18:11:38.453Z,3.63
2023-03-03T18:16:58.227Z,3.55
2023-03-03T18:22:05.751Z,3.13
2023-03-03T18:27:34.958Z,4.35
2023-03-03T18:33:02.020Z,3.97
2023-03-03T18:38:15.897Z,3.65
2023-03-03T18:43:42.736Z,4.53
2023-03-03T18:48:50.468Z,3.03
2023-03-03T18:54:08.646Z,3.60
2023-03-03T18:59:10.564Z,3.63
2023-03-03T19:04:16.354Z,3.83
2023-03-03T19:09:56.780Z,3.28
2023-03-03T19:14:58.519Z,3.67
2023-03-03T19:20:08.837Z,2.90
2023-03-03T19:25:18.472Z,3.38
2023-03-03T19:30:44.539Z,3.10
2023-03-03T19:36:06.087Z,3.53
2023-03-03T19:41:30.661Z,3.67
2023-03-03T19:47:23.728Z,3.35
2023-03-03T19:52:44.706Z,4.47
2023-03-03T19:58:02.094Z,3.30
2023-03-03T20:03:41.269Z,4.65
2023-03-03T20:08:58.796Z,4.30
2023-03-03T20:14:10.186Z,3.40
2023-03-03T20:19:45.522Z,3.72
2023-03-03T20:25:04.536Z,4.00
2023-03-03T20:30:08.757Z,3.75
2023-03-03T20:35:27.368Z,3.45
2023-03-03T20:41:07.620Z,2.78
2023-03-03T20:46:35.101Z,3.00
2023-03-03T20:51:45.579Z,2.72
2023-03-03T20:57:22.309Z,3.38
2023-03-03T21:02:34.932Z,2.88
2023-03-03T21:07:37.026Z,2.90
2023-03-03T21:12:38.775Z,2.78
2023-03-03T21:17:41.890Z,3.30
2023-03-03T21:22:43.781Z,3.90
2023-03-03T21:27:45.503Z,3.45
2023-03-03T21:32:49.224Z,3.00
2023-03-03T21:37:53.921Z,4.13
2023-03-03T21:42:58.965Z,3.58
2023-03-03T21:48:03.605Z,3.67
2023-03-03T21:53:05.292Z,3.58
2023-03-03T21:58:06.983Z,3.15
2023-03-03T22:03:08.817Z,3.08
2023-03-03T22:08:10.483Z,2.28
2023-03-03T22:13:12.250Z,2.45
2023-03-03T22:18:15.072Z,2.22
2023-03-03T22:23:18.805Z,2.10
2023-03-03T22:28:20.544Z,2.47
2023-03-03T22:33:22.233Z,2.65
2023-03-03T22:38:25.141Z,1.80
2023-03-03T22:43:29.676Z,2.25
2023-03-03T22:48:31.900Z,2.35
2023-03-03T22:53:33.798Z,2.10
2023-03-03T22:58:36.960Z,2.28
2023-03-03T23:03:39.741Z,2.50
2023-03-03T23:08:41.361Z,2.42
2023-03-03T23:13:42.992Z,2.60
2023-03-03T23:18:44.589Z,2.38
2023-03-03T23:23:46.164Z,2.53
2023-03-03T23:28:47.726Z,1.85
2023-03-03T23:33:50.915Z,2.38
2023-03-03T23:38:52.611Z,2.53
2023-03-03T23:43:54.257Z,1.70
2023-03-03T23:48:55.865Z,2.28
2023-03-03T23:53:57.567Z,2.00
2023-03-03T23:59:00.533Z,1.95
